createdAt,value
2017-12-06T00:00:05.366Z,21.1
2017-12-06T00:02:05.142Z,21.1
2017-12-06T00:04:05.528Z,21.1
2017-12-06T00:06:07.875Z,21.1
2017-12-06T00:08:07.222Z,21.1
2017-12-06T00:10:08.034Z,21.1
2017-12-06T00:12:04.811Z,21.1
2017-12-06T00:14:05.579Z,21.2
2017-12-06T00:16:04.861Z,21.1
2017-12-06T00:18:04.814Z,21.1
2017-12-06T00:20:05.550Z,21.1
2017-12-06T00:22:15.448Z,21.1
2017-12-06T00:24:05.267Z,21.1
2017-12-06T00:26:05.098Z,21.1
2017-12-06T00:28:09.954Z,21.1
2017-12-06T00:30:04.706Z,21.1
2017-12-06T00:32:05.472Z,21.1
2017-12-06T00:34:05.192Z,21.1
2017-12-06T00:36:04.888Z,21.1
2017-12-06T00:38:05.136Z,21.1
2017-12-06T00:40:04.940Z,21.1
2017-12-06T00:42:04.745Z,21.1
2017-12-06T00:44:05.558Z,21.1
2017-12-06T00:46:05.433Z,21.1
2017-12-06T00:48:07.722Z,21.1
2017-12-06T00:50:05.476Z,21.1
2017-12-06T00:52:15.359Z,21.1
2017-12-06T00:54:05.715Z,21.1
2017-12-06T00:56:05.533Z,21.1
2017-12-06T00:58:05.390Z,21.1
2017-12-06T01:00:05.220Z,21.1
2017-12-06T01:02:12.563Z,21.1
2017-12-06T01:04:07.391Z,21.1
2017-12-06T01:06:07.668Z,21.1
2017-12-06T01:08:05.426Z,21.1
2017-12-06T01:10:05.290Z,21.1
2017-12-06T01:12:08.116Z,21
2017-12-06T01:14:07.360Z,21.1
2017-12-06T01:16:05.161Z,21.1
2017-12-06T01:18:04.676Z,21.1
2017-12-06T01:20:05.014Z,21.1
2017-12-06T01:22:04.857Z,21.1
2017-12-06T01:24:09.734Z,21.1
2017-12-06T01:26:08.034Z,21.1
2017-12-06T01:28:04.774Z,21.1
2017-12-06T01:30:05.549Z,21.1
2017-12-06T01:32:05.369Z,21
2017-12-06T01:34:05.276Z,21
2017-12-06T01:36:05.038Z,21
2017-12-06T01:38:12.361Z,21
2017-12-06T01:40:05.152Z,21
2017-12-06T01:42:05.065Z,21.1
2017-12-06T01:44:04.795Z,21.1
2017-12-06T01:46:08.191Z,21.1
2017-12-06T01:48:04.976Z,21.1
2017-12-06T01:50:04.750Z,21.1
2017-12-06T01:52:05.507Z,21.1
2017-12-06T01:54:05.209Z,21.1
2017-12-06T01:56:04.933Z,21.1
2017-12-06T01:58:05.186Z,21.1
2017-12-06T02:00:07.507Z,21.1
2017-12-06T02:02:04.783Z,21.1
2017-12-06T02:04:08.027Z,21.1
2017-12-06T02:06:04.825Z,21
2017-12-06T02:08:05.364Z,21.1
2017-12-06T02:10:07.170Z,21.1
2017-12-06T02:12:04.896Z,21.1
2017-12-06T02:14:04.671Z,21.1
2017-12-06T02:16:08.020Z,21
2017-12-06T02:18:05.012Z,21
2017-12-06T02:20:04.759Z,21
2017-12-06T02:22:05.505Z,21.1
2017-12-06T02:24:05.255Z,21
2017-12-06T02:26:07.555Z,21.1
2017-12-06T02:28:05.288Z,21.1
2017-12-06T02:30:07.626Z,21.1
2017-12-06T02:32:05.409Z,21
2017-12-06T02:34:04.773Z,21
2017-12-06T02:36:05.130Z,21
2017-12-06T02:38:05.426Z,21
2017-12-06T02:40:04.777Z,21
2017-12-06T02:42:05.589Z,21
2017-12-06T02:44:07.869Z,21
2017-12-06T02:46:04.646Z,21
2017-12-06T02:48:05.536Z,21
2017-12-06T02:50:05.281Z,21
2017-12-06T02:52:05.077Z,21
2017-12-06T02:54:05.543Z,21
2017-12-06T02:56:12.984Z,21
2017-12-06T02:58:04.899Z,21
2017-12-06T03:00:04.875Z,21
2017-12-06T03:02:05.190Z,21
2017-12-06T03:04:05.205Z,21
2017-12-06T03:06:05.486Z,21
2017-12-06T03:08:04.799Z,21
2017-12-06T03:10:08.058Z,21
2017-12-06T03:12:07.874Z,21
2017-12-06T03:14:04.873Z,21
2017-12-06T03:16:07.665Z,21
2017-12-06T03:18:05.682Z,21
2017-12-06T03:20:05.577Z,21
2017-12-06T03:22:05.318Z,21
2017-12-06T03:24:07.604Z,21
2017-12-06T03:26:05.369Z,21
2017-12-06T03:28:07.221Z,21
2017-12-06T03:30:04.960Z,21
2017-12-06T03:32:04.727Z,21
2017-12-06T03:34:05.497Z,21
2017-12-06T03:36:05.528Z,21
2017-12-06T03:38:04.809Z,21
2017-12-06T03:40:05.540Z,21
2017-12-06T03:42:10.567Z,21
2017-12-06T03:44:05.359Z,21
2017-12-06T03:46:07.642Z,21
2017-12-06T03:48:05.422Z,21
2017-12-06T03:50:07.778Z,21
2017-12-06T03:52:13.253Z,21
2017-12-06T03:54:04.986Z,21
2017-12-06T03:56:05.280Z,21
2017-12-06T03:58:05.610Z,21
2017-12-06T04:00:05.407Z,21
2017-12-06T04:02:05.180Z,21
2017-12-06T04:04:04.968Z,21
2017-12-06T04:06:04.809Z,21
2017-12-06T04:08:05.563Z,21
2017-12-06T04:10:07.859Z,21
2017-12-06T04:12:05.605Z,21
2017-12-06T04:14:05.463Z,21
2017-12-06T04:16:05.305Z,21
2017-12-06T04:18:05.232Z,21
2017-12-06T04:20:04.971Z,21
2017-12-06T04:22:05.502Z,21
2017-12-06T04:24:05.292Z,21
2017-12-06T04:26:07.575Z,21
2017-12-06T04:28:05.330Z,21
2017-12-06T04:30:05.050Z,21
2017-12-06T04:32:04.823Z,20.9
2017-12-06T04:34:08.157Z,21
2017-12-06T04:36:05.458Z,21
2017-12-06T04:38:04.772Z,21
2017-12-06T04:40:05.128Z,21
2017-12-06T04:42:07.396Z,21
2017-12-06T04:44:05.211Z,21
2017-12-06T04:46:07.530Z,21
2017-12-06T04:48:05.248Z,21
2017-12-06T04:50:08.042Z,20.9
2017-12-06T04:52:04.862Z,20.9
2017-12-06T04:54:05.674Z,21
2017-12-06T04:56:07.992Z,21
2017-12-06T04:58:04.871Z,21
2017-12-06T05:00:04.708Z,21
2017-12-06T05:02:07.587Z,21
2017-12-06T05:04:05.367Z,21
2017-12-06T05:06:05.250Z,21
2017-12-06T05:08:07.575Z,21
2017-12-06T05:10:04.901Z,21
2017-12-06T05:12:07.367Z,21
2017-12-06T05:14:04.656Z,21
2017-12-06T05:16:10.490Z,21
2017-12-06T05:18:05.482Z,21
2017-12-06T05:20:07.800Z,21
2017-12-06T05:22:05.618Z,21
2017-12-06T05:24:05.448Z,21
2017-12-06T05:26:07.717Z,21
2017-12-06T05:28:05.528Z,21
2017-12-06T05:30:05.263Z,21
2017-12-06T05:32:05.011Z,21
2017-12-06T05:34:08.096Z,21
2017-12-06T05:36:04.765Z,21
2017-12-06T05:38:05.032Z,20.9
2017-12-06T05:40:04.868Z,20.9
2017-12-06T05:42:05.072Z,20.9
2017-12-06T05:44:07.596Z,21
2017-12-06T05:46:05.999Z,21
2017-12-06T05:48:04.807Z,20.9
2017-12-06T05:50:04.802Z,20.9
2017-12-06T05:52:05.616Z,21
2017-12-06T05:54:05.487Z,21
2017-12-06T05:56:07.783Z,20.9
2017-12-06T05:58:05.606Z,20.9
2017-12-06T06:00:05.151Z,21
2017-12-06T06:02:05.011Z,20.9
2017-12-06T06:04:05.883Z,20.9
2017-12-06T06:06:04.638Z,20.9
2017-12-06T06:08:04.606Z,20.9
2017-12-06T06:10:05.403Z,20.9
2017-12-06T06:12:05.117Z,20.9
2017-12-06T06:14:04.887Z,20.9
2017-12-06T06:16:04.705Z,20.9
2017-12-06T06:18:04.770Z,20.9
2017-12-06T06:20:05.531Z,20.9
2017-12-06T06:22:05.353Z,20.9
2017-12-06T06:24:04.723Z,20.9
2017-12-06T06:26:05.544Z,20.9
2017-12-06T06:28:05.527Z,20.9
2017-12-06T06:30:05.310Z,20.9
2017-12-06T06:32:05.097Z,20.9
2017-12-06T06:34:09.945Z,20.9
2017-12-06T06:36:04.667Z,20.9
2017-12-06T06:38:04.995Z,20.9
2017-12-06T06:40:04.850Z,20.9
2017-12-06T06:42:04.751Z,20.9
2017-12-06T06:44:07.265Z,20.9
2017-12-06T06:46:05.004Z,20.9
2017-12-06T06:48:12.348Z,20.9
2017-12-06T06:50:05.096Z,20.9
2017-12-06T06:52:04.857Z,20.9
2017-12-06T06:54:05.573Z,20.9
2017-12-06T06:56:05.340Z,21
2017-12-06T06:58:05.141Z,20.9
2017-12-06T07:00:04.983Z,20.9
2017-12-06T07:02:04.797Z,20.9
2017-12-06T07:04:05.590Z,20.9
2017-12-06T07:06:05.325Z,20.9
2017-12-06T07:08:05.100Z,20.9
2017-12-06T07:10:09.968Z,20.9
2017-12-06T07:12:07.276Z,20.9
2017-12-06T07:14:05.045Z,20.9
2017-12-06T07:16:05.364Z,20.9
2017-12-06T07:18:04.895Z,20.9
2017-12-06T07:20:12.834Z,20.9
2017-12-06T07:22:05.638Z,20.9
2017-12-06T07:24:05.429Z,20.9
2017-12-06T07:26:05.237Z,20.9
2017-12-06T07:28:05.034Z,20.9
2017-12-06T07:30:07.359Z,20.9
2017-12-06T07:32:05.112Z,20.9
2017-12-06T07:34:04.955Z,20.9
2017-12-06T07:36:04.730Z,20.9
2017-12-06T07:38:08.044Z,20.9
2017-12-06T07:40:04.813Z,20.9
2017-12-06T07:42:08.095Z,20.8
2017-12-06T07:44:05.473Z,20.9
2017-12-06T07:46:07.918Z,20.9
2017-12-06T07:48:05.218Z,20.9
2017-12-06T07:50:05.038Z,20.9
2017-12-06T07:52:05.881Z,20.9
2017-12-06T07:54:06.168Z,20.9
2017-12-06T07:56:04.739Z,20.9
2017-12-06T07:58:06.136Z,20.9
2017-12-06T08:00:05.100Z,20.9
2017-12-06T08:02:06.861Z,20.9
2017-12-06T08:04:05.662Z,20.9
2017-12-06T08:06:10.509Z,20.9
2017-12-06T08:08:07.516Z,20.9
2017-12-06T08:10:12.011Z,20.9
2017-12-06T08:12:07.255Z,20.9
2017-12-06T08:14:11.016Z,20.9
2017-12-06T08:16:06.598Z,20.9
2017-12-06T08:18:05.169Z,20.9
2017-12-06T08:20:04.937Z,20.9
2017-12-06T08:22:10.660Z,20.9
2017-12-06T08:24:05.436Z,20.9
2017-12-06T08:26:07.938Z,20.9
2017-12-06T08:28:04.767Z,20.9
2017-12-06T08:30:05.567Z,20.9
2017-12-06T08:32:05.370Z,20.9
2017-12-06T08:34:05.202Z,20.9
2017-12-06T08:36:04.985Z,20.9
2017-12-06T08:38:04.737Z,20.9
2017-12-06T08:40:08.068Z,20.9
2017-12-06T08:42:04.822Z,20.9
2017-12-06T08:44:04.624Z,20.9
2017-12-06T08:46:05.384Z,20.9
2017-12-06T08:48:05.126Z,20.8
2017-12-06T08:50:05.504Z,20.9
2017-12-06T08:52:10.385Z,20.9
2017-12-06T08:54:04.647Z,20.8
2017-12-06T08:56:05.417Z,20.8
2017-12-06T08:58:05.281Z,20.9
2017-12-06T09:00:05.636Z,20.9
2017-12-06T09:02:07.909Z,20.8
2017-12-06T09:04:04.619Z,20.8
2017-12-06T09:06:05.357Z,20.8
2017-12-06T09:08:10.141Z,20.8
2017-12-06T09:10:05.458Z,20.8
2017-12-06T09:12:04.677Z,20.8
2017-12-06T09:14:07.933Z,20.8
2017-12-06T09:16:05.873Z,20.8
2017-12-06T09:18:07.914Z,20.8
2017-12-06T09:20:05.500Z,20.8
2017-12-06T09:22:05.307Z,20.8
2017-12-06T09:24:06.073Z,20.8
2017-12-06T09:26:04.864Z,20.8
2017-12-06T09:28:05.225Z,20.8
2017-12-06T09:30:04.939Z,20.8
2017-12-06T09:32:04.754Z,20.8
2017-12-06T09:34:05.706Z,20.9
2017-12-06T09:36:05.081Z,20.9
2017-12-06T09:38:10.430Z,20.9
2017-12-06T09:40:05.163Z,20.9
2017-12-06T09:42:07.961Z,20.9
2017-12-06T09:44:04.777Z,20.9
2017-12-06T09:46:05.562Z,20.9
2017-12-06T09:48:08.685Z,21
2017-12-06T09:50:04.742Z,21
2017-12-06T09:52:10.641Z,20.9
2017-12-06T09:54:05.527Z,20.9
2017-12-06T09:56:06.325Z,20.9
2017-12-06T09:58:12.792Z,20.9
2017-12-06T10:00:05.815Z,20.9
2017-12-06T10:02:06.641Z,20.9
2017-12-06T10:04:05.652Z,20.9
2017-12-06T10:06:05.610Z,20.9
2017-12-06T10:08:10.261Z,20.9
2017-12-06T10:10:08.575Z,20.9
2017-12-06T10:12:08.229Z,20.9
2017-12-06T10:14:05.686Z,20.9
2017-12-06T10:16:08.401Z,20.9
2017-12-06T10:18:05.608Z,20.9
2017-12-06T10:20:09.331Z,20.9
2017-12-06T10:22:04.922Z,20.9
2017-12-06T10:24:11.890Z,20.9
2017-12-06T10:26:05.960Z,20.9
2017-12-06T10:28:05.652Z,20.9
2017-12-06T10:30:05.022Z,20.9
2017-12-06T10:32:05.056Z,20.9
2017-12-06T10:34:08.006Z,20.9
2017-12-06T10:36:07.855Z,20.9
2017-12-06T10:38:14.318Z,20.9
2017-12-06T10:40:04.844Z,20.9
2017-12-06T10:42:05.302Z,20.9
2017-12-06T10:44:07.745Z,20.9
2017-12-06T10:46:20.165Z,20.9
2017-12-06T10:48:05.205Z,20.9
2017-12-06T10:50:05.594Z,20.9
2017-12-06T10:52:06.689Z,20.8
2017-12-06T10:54:07.887Z,20.9
2017-12-06T10:56:04.964Z,20.8
2017-12-06T10:58:10.506Z,20.8
2017-12-06T11:00:06.643Z,20.9
2017-12-06T11:02:05.464Z,20.9
2017-12-06T11:04:07.732Z,20.8
2017-12-06T11:06:08.047Z,20.8
2017-12-06T11:08:04.837Z,20.8
2017-12-06T11:10:05.679Z,20.8
2017-12-06T11:12:07.205Z,20.8
2017-12-06T11:14:06.699Z,20.8
2017-12-06T11:16:07.417Z,20.8
2017-12-06T11:18:07.738Z,20.8
2017-12-06T11:20:05.036Z,20.8
2017-12-06T11:22:10.943Z,20.8
2017-12-06T11:24:09.428Z,20.9
2017-12-06T11:26:04.815Z,20.9
2017-12-06T11:28:05.310Z,20.9
2017-12-06T11:30:06.129Z,20.8
2017-12-06T11:32:05.340Z,20.8
2017-12-06T11:34:05.161Z,20.9
2017-12-06T11:36:07.934Z,20.8
2017-12-06T11:38:07.622Z,20.8
2017-12-06T11:40:11.712Z,20.8
2017-12-06T11:42:05.187Z,20.8
2017-12-06T11:44:05.060Z,20.8
2017-12-06T11:46:13.424Z,20.8
2017-12-06T11:48:05.208Z,20.8
2017-12-06T11:50:06.699Z,20.8
2017-12-06T11:52:06.245Z,20.8
2017-12-06T11:54:23.006Z,20.8
2017-12-06T11:56:06.207Z,20.8
2017-12-06T11:58:05.835Z,20.8
2017-12-06T12:00:04.872Z,20.8
2017-12-06T12:02:08.067Z,20.8
2017-12-06T12:04:12.120Z,20.8
2017-12-06T12:06:04.894Z,20.8
2017-12-06T12:08:07.367Z,20.8
2017-12-06T12:10:04.670Z,20.8
2017-12-06T12:12:05.587Z,20.8
2017-12-06T12:14:06.501Z,20.8
2017-12-06T12:17:13.747Z,20.8
2017-12-06T12:18:07.966Z,20.8
2017-12-06T12:20:04.797Z,20.8
2017-12-06T12:22:13.354Z,20.8
2017-12-06T12:24:12.753Z,20.8
2017-12-06T12:26:05.701Z,20.8
2017-12-06T12:28:35.565Z,20.8
2017-12-06T12:30:11.478Z,20.8
2017-12-06T12:32:05.392Z,20.8
2017-12-06T12:34:04.903Z,20.8
2017-12-06T12:36:04.672Z,20.8
2017-12-06T12:38:05.473Z,20.8
2017-12-06T12:40:05.307Z,20.8
2017-12-06T12:42:08.160Z,20.8
2017-12-06T12:44:05.003Z,20.8
2017-12-06T12:46:07.308Z,20.8
2017-12-06T12:48:05.043Z,20.8
2017-12-06T12:50:10.100Z,20.8
2017-12-06T12:52:04.937Z,20.8
2017-12-06T12:54:07.747Z,20.8
2017-12-06T12:56:05.469Z,20.8
2017-12-06T12:58:05.423Z,20.8
2017-12-06T13:00:04.736Z,20.8
2017-12-06T13:02:04.727Z,20.8
2017-12-06T13:04:10.582Z,20.9
2017-12-06T13:06:05.581Z,20.9
2017-12-06T13:08:10.412Z,20.8
2017-12-06T13:10:05.204Z,20.9
2017-12-06T13:12:10.111Z,20.9
2017-12-06T13:14:04.852Z,20.9
2017-12-06T13:16:04.661Z,20.9
2017-12-06T13:18:05.640Z,20.9
2017-12-06T13:20:05.400Z,20.9
2017-12-06T13:22:05.261Z,20.9
2017-12-06T13:24:07.201Z,21
2017-12-06T13:26:05.054Z,21
2017-12-06T13:28:04.963Z,21
2017-12-06T13:30:09.776Z,21
2017-12-06T13:32:05.049Z,21
2017-12-06T13:34:05.504Z,21.1
2017-12-06T13:36:05.292Z,21.1
2017-12-06T13:38:05.020Z,21.1
2017-12-06T13:40:04.823Z,21
2017-12-06T13:42:05.555Z,21
2017-12-06T13:44:07.346Z,21
2017-12-06T13:46:07.706Z,21
2017-12-06T13:48:05.468Z,21
2017-12-06T13:50:04.812Z,21
2017-12-06T13:52:05.668Z,21
2017-12-06T13:54:05.426Z,20.9
2017-12-06T13:56:05.215Z,20.9
2017-12-06T13:58:07.525Z,20.9
2017-12-06T14:00:05.424Z,20.9
2017-12-06T14:02:04.851Z,20.9
2017-12-06T14:04:08.152Z,20.9
2017-12-06T14:06:04.941Z,20.9
2017-12-06T14:08:04.712Z,20.9
2017-12-06T14:10:05.504Z,20.9
2017-12-06T14:12:05.247Z,20.9
2017-12-06T14:14:04.998Z,20.9
2017-12-06T14:16:07.460Z,20.9
2017-12-06T14:18:05.393Z,20.9
2017-12-06T14:20:05.424Z,20.9
2017-12-06T14:22:05.225Z,20.9
2017-12-06T14:24:04.968Z,20.9
2017-12-06T14:26:04.747Z,20.9
2017-12-06T14:28:05.500Z,20.9
2017-12-06T14:30:04.755Z,20.9
2017-12-06T14:32:08.122Z,20.9
2017-12-06T14:34:05.490Z,20.9
2017-12-06T14:36:05.259Z,20.9
2017-12-06T14:38:05.113Z,20.8
2017-12-06T14:40:04.892Z,20.9
2017-12-06T14:42:12.292Z,20.8
2017-12-06T14:44:07.636Z,20.8
2017-12-06T14:46:05.935Z,20.9
2017-12-06T14:48:04.696Z,20.8
2017-12-06T14:50:08.029Z,20.8
2017-12-06T14:52:04.833Z,20.8
2017-12-06T14:54:07.640Z,20.8
2017-12-06T14:56:05.409Z,20.8
2017-12-06T14:58:05.250Z,20.8
2017-12-06T15:00:05.144Z,20.8
2017-12-06T15:02:07.633Z,20.8
2017-12-06T15:04:05.438Z,20.8
2017-12-06T15:06:05.295Z,20.8
2017-12-06T15:08:15.207Z,20.9
2017-12-06T15:10:05.017Z,20.9
2017-12-06T15:12:04.777Z,20.9
2017-12-06T15:14:05.599Z,20.8
2017-12-06T15:16:05.382Z,20.8
2017-12-06T15:18:05.372Z,20.8
2017-12-06T15:20:07.669Z,20.8
2017-12-06T15:22:05.491Z,20.8
2017-12-06T15:24:13.154Z,20.8
2017-12-06T15:26:05.048Z,20.8
2017-12-06T15:28:05.019Z,20.8
2017-12-06T15:30:04.844Z,20.8
2017-12-06T15:32:05.160Z,20.8
2017-12-06T15:34:05.510Z,20.8
2017-12-06T15:36:05.284Z,20.8
2017-12-06T15:38:05.100Z,20.8
2017-12-06T15:40:04.929Z,20.8
2017-12-06T15:42:04.687Z,20.8
2017-12-06T15:44:07.444Z,20.8
2017-12-06T15:46:09.740Z,20.8
2017-12-06T15:48:10.258Z,20.9
2017-12-06T15:50:05.044Z,20.8
2017-12-06T15:52:04.847Z,20.9
2017-12-06T15:54:08.131Z,20.9
2017-12-06T15:56:04.903Z,20.9
2017-12-06T15:58:05.075Z,20.9
2017-12-06T16:00:04.842Z,21
2017-12-06T16:02:05.636Z,20.9
2017-12-06T16:04:05.479Z,21
2017-12-06T16:06:04.896Z,21
2017-12-06T16:08:04.808Z,21.1
2017-12-06T16:10:08.101Z,21.1
2017-12-06T16:12:04.876Z,21.1
2017-12-06T16:14:07.239Z,21.1
2017-12-06T16:16:05.052Z,21.1
2017-12-06T16:18:08.111Z,21.2
2017-12-06T16:20:04.913Z,21.2
2017-12-06T16:22:04.713Z,21.1
2017-12-06T16:24:07.987Z,21.1
2017-12-06T16:26:05.266Z,21.1
2017-12-06T16:28:07.566Z,21.2
2017-12-06T16:30:07.919Z,21.2
2017-12-06T16:32:07.236Z,21.2
2017-12-06T16:34:05.063Z,21.2
2017-12-06T16:36:04.833Z,21.3
2017-12-06T16:38:04.605Z,21.3
2017-12-06T16:40:07.934Z,21.3
2017-12-06T16:42:04.739Z,21.3
2017-12-06T16:44:05.440Z,21.3
2017-12-06T16:46:05.255Z,21.3
2017-12-06T16:48:10.224Z,21.3
2017-12-06T16:50:05.039Z,21.4
2017-12-06T16:52:05.627Z,21.4
2017-12-06T16:54:05.334Z,21.4
2017-12-06T16:56:09.984Z,21.4
2017-12-06T16:58:07.377Z,21.4
2017-12-06T17:00:05.394Z,21.4
2017-12-06T17:02:05.288Z,21.4
2017-12-06T17:04:05.220Z,21.5
2017-12-06T17:06:07.879Z,21.5
2017-12-06T17:08:04.655Z,21.5
2017-12-06T17:10:05.604Z,21.5
2017-12-06T17:12:05.393Z,21.5
2017-12-06T17:14:09.786Z,21.5
2017-12-06T17:16:05.397Z,21.5
2017-12-06T17:18:07.373Z,21.5
2017-12-06T17:20:05.136Z,21.5
2017-12-06T17:22:05.582Z,21.5
2017-12-06T17:24:05.382Z,21.5
2017-12-06T17:26:12.887Z,21.6
2017-12-06T17:28:04.666Z,21.6
2017-12-06T17:30:05.634Z,21.6
2017-12-06T17:32:04.939Z,21.6
2017-12-06T17:34:09.949Z,21.6
2017-12-06T17:36:08.137Z,21.6
2017-12-06T17:38:10.103Z,21.6
2017-12-06T17:40:05.375Z,21.6
2017-12-06T17:42:05.889Z,21.6
2017-12-06T17:44:05.415Z,21.6
2017-12-06T17:46:10.613Z,21.6
2017-12-06T17:48:05.538Z,21.7
2017-12-06T17:50:10.383Z,21.6
2017-12-06T17:54:05.819Z,21.6
2017-12-06T17:56:08.327Z,21.7
2017-12-06T17:58:07.709Z,21.7
2017-12-06T18:00:08.412Z,21.7
2017-12-06T18:02:35.704Z,21.7
2017-12-06T18:04:04.695Z,21.7
2017-12-06T18:06:11.077Z,21.7
2017-12-06T18:08:05.526Z,21.7
2017-12-06T18:10:27.398Z,21.7
2017-12-06T18:12:05.205Z,21.7
2017-12-06T18:14:04.915Z,21.7
2017-12-06T18:16:04.686Z,21.7
2017-12-06T18:18:17.706Z,21.7
2017-12-06T18:20:04.719Z,21.7
2017-12-06T18:22:05.435Z,21.7
2017-12-06T18:24:05.557Z,21.7
2017-12-06T18:26:04.868Z,21.7
2017-12-06T18:28:04.839Z,21.7
2017-12-06T18:30:04.837Z,21.8
2017-12-06T18:32:08.323Z,21.8
2017-12-06T18:34:05.043Z,21.7
2017-12-06T18:36:05.039Z,21.8
2017-12-06T18:38:05.642Z,21.8
2017-12-06T18:40:04.756Z,21.8
2017-12-06T18:42:06.103Z,21.8
2017-12-06T18:44:09.099Z,21.8
2017-12-06T18:46:07.613Z,21.8
2017-12-06T18:48:05.831Z,21.8
2017-12-06T18:50:04.808Z,21.8
2017-12-06T18:52:08.354Z,21.8
2017-12-06T18:54:04.857Z,21.8
2017-12-06T18:56:10.181Z,21.7
2017-12-06T18:58:06.157Z,21.8
2017-12-06T19:00:09.346Z,21.8
2017-12-06T19:02:06.035Z,21.8
2017-12-06T19:04:06.707Z,21.8
2017-12-06T19:06:06.695Z,21.8
2017-12-06T19:08:11.278Z,21.9
2017-12-06T19:10:07.688Z,21.9
2017-12-06T19:12:05.291Z,21.8
2017-12-06T19:14:05.118Z,21.9
2017-12-06T19:16:04.968Z,21.9
2017-12-06T19:18:05.665Z,21.9
2017-12-06T19:20:05.428Z,21.9
2017-12-06T19:22:07.906Z,21.9
2017-12-06T19:24:05.139Z,21.9
2017-12-06T19:26:10.116Z,21.9
2017-12-06T19:28:05.101Z,21.9
2017-12-06T19:30:05.409Z,21.9
2017-12-06T19:32:05.369Z,22
2017-12-06T19:34:05.336Z,22
2017-12-06T19:36:05.631Z,22
2017-12-06T19:38:05.460Z,22
2017-12-06T19:40:10.178Z,22
2017-12-06T19:42:05.305Z,22
2017-12-06T19:44:05.091Z,22
2017-12-06T19:46:04.903Z,22
2017-12-06T19:48:04.698Z,22
2017-12-06T19:50:05.510Z,22
2017-12-06T19:52:05.365Z,22
2017-12-06T19:54:15.247Z,22
2017-12-06T19:56:04.943Z,22
2017-12-06T19:58:11.558Z,22
2017-12-06T20:00:04.794Z,22
2017-12-06T20:02:06.515Z,22
2017-12-06T20:04:05.402Z,22
2017-12-06T20:06:05.375Z,22
2017-12-06T20:08:07.967Z,22
2017-12-06T20:10:05.020Z,22
2017-12-06T20:12:05.051Z,22
2017-12-06T20:14:05.058Z,22
2017-12-06T20:16:04.833Z,22
2017-12-06T20:18:07.485Z,22
2017-12-06T20:20:05.498Z,22
2017-12-06T20:22:05.438Z,22
2017-12-06T20:24:07.809Z,22
2017-12-06T20:26:05.749Z,22
2017-12-06T20:28:04.766Z,22
2017-12-06T20:30:05.606Z,22
2017-12-06T20:32:04.684Z,22
2017-12-06T20:34:04.973Z,22
2017-12-06T20:36:10.411Z,22
2017-12-06T20:38:05.596Z,22
2017-12-06T20:40:21.043Z,22
2017-12-06T20:42:10.137Z,22
2017-12-06T20:44:04.885Z,22
2017-12-06T20:46:04.706Z,22
2017-12-06T20:48:05.703Z,22
2017-12-06T20:50:08.019Z,22
2017-12-06T20:52:05.854Z,22.1
2017-12-06T20:54:05.633Z,22
2017-12-06T20:56:05.869Z,22
2017-12-06T20:58:12.836Z,22.1
2017-12-06T21:00:04.637Z,22.1
2017-12-06T21:02:05.391Z,22.1
2017-12-06T21:04:10.227Z,22.1
2017-12-06T21:06:05.007Z,22.1
2017-12-06T21:08:05.287Z,22.1
2017-12-06T21:10:05.530Z,22.1
2017-12-06T21:12:05.068Z,22.1
2017-12-06T21:14:05.246Z,22.1
2017-12-06T21:18:09.946Z,22.1
2017-12-06T21:20:06.350Z,22.1
2017-12-06T21:22:10.357Z,22.1
2017-12-06T21:24:04.939Z,22.1
2017-12-06T21:26:05.870Z,22.1
2017-12-06T21:28:05.621Z,22.1
2017-12-06T21:30:05.293Z,22.1
2017-12-06T21:32:05.320Z,22.1
2017-12-06T21:34:10.187Z,22.1
2017-12-06T21:36:10.064Z,22.1
2017-12-06T21:38:05.304Z,22.1
2017-12-06T21:40:06.682Z,22.1
2017-12-06T21:42:07.693Z,22.2
2017-12-06T21:44:05.489Z,22.2
2017-12-06T21:46:06.636Z,22.2
2017-12-06T21:48:04.774Z,22.2
2017-12-06T21:50:07.620Z,22.2
2017-12-06T21:52:05.374Z,22.2
2017-12-06T21:54:05.260Z,22.2
2017-12-06T21:56:10.076Z,22.2
2017-12-06T21:58:07.361Z,22.2
2017-12-06T22:00:04.708Z,22.2
2017-12-06T22:02:07.622Z,22.2
2017-12-06T22:04:05.382Z,22.2
2017-12-06T22:06:05.210Z,22.2
2017-12-06T22:08:10.036Z,22.3
2017-12-06T22:10:07.354Z,22.3
2017-12-06T22:12:09.956Z,22.2
2017-12-06T22:14:04.678Z,22.2
2017-12-06T22:16:04.954Z,22.3
2017-12-06T22:18:04.910Z,22.3
2017-12-06T22:20:04.832Z,22.2
2017-12-06T22:22:05.634Z,22.2
2017-12-06T22:24:05.439Z,22.2
2017-12-06T22:26:07.587Z,22.3
2017-12-06T22:28:04.865Z,22.2
2017-12-06T22:30:05.655Z,22.2
2017-12-06T22:32:04.946Z,22.2
2017-12-06T22:34:07.266Z,22.2
2017-12-06T22:36:07.496Z,22.3
2017-12-06T22:38:05.284Z,22.2
2017-12-06T22:40:08.125Z,22.1
2017-12-06T22:42:07.439Z,22.2
2017-12-06T22:44:05.201Z,22.2
2017-12-06T22:46:04.755Z,22.1
2017-12-06T22:48:05.550Z,22.2
2017-12-06T22:50:05.368Z,22.2
2017-12-06T22:52:07.201Z,22.2
2017-12-06T22:54:04.968Z,22.2
2017-12-06T22:56:05.247Z,22.2
2017-12-06T22:58:05.109Z,22.3
2017-12-06T23:00:07.389Z,22.3
2017-12-06T23:02:07.302Z,22.3
2017-12-06T23:04:07.660Z,22.3
2017-12-06T23:06:07.444Z,22.3
2017-12-06T23:08:04.708Z,22.3
2017-12-06T23:10:08.015Z,22.3
2017-12-06T23:12:07.269Z,22.3
2017-12-06T23:14:05.009Z,22.3
2017-12-06T23:16:04.976Z,22.3
2017-12-06T23:18:04.919Z,22.3
2017-12-06T23:20:04.711Z,22.2
2017-12-06T23:22:05.532Z,22.2
2017-12-06T23:24:05.337Z,22.1
2017-12-06T23:26:05.101Z,22.2
2017-12-06T23:28:04.900Z,22.2
2017-12-06T23:30:04.634Z,22.2
2017-12-06T23:32:05.441Z,22.2
2017-12-06T23:34:04.765Z,22.3
2017-12-06T23:36:08.109Z,22.2
2017-12-06T23:38:04.850Z,22.2
2017-12-06T23:40:05.588Z,22.2
2017-12-06T23:42:05.344Z,22.3
2017-12-06T23:44:05.079Z,22.3
2017-12-06T23:46:04.916Z,22.2
2017-12-06T23:48:04.688Z,22.2
2017-12-06T23:50:05.461Z,22.2
2017-12-06T23:52:07.872Z,22.2
2017-12-06T23:54:05.623Z,22.2
2017-12-06T23:56:07.964Z,22.2
2017-12-06T23:58:08.262Z,22.2
